Terminal Aerodrome Forecast
Issued by NWS

Home | Current Version | Previous Version | Text Only | Print | Product List | Glossary On
Versions: 1 2 3 4 5 6 7 8 9 10 11 12 13 14 15 16 17 18
000
FTUS43 KPAH 182000 AAA
TAFCGI
TAF AMD
KCGI 182000Z 1820/1918 29006KT P6SM SCT060
     FM182100 23004KT P6SM VCTS BKN040CB
     FM190000 VRB02KT 6SM -SHRA BR BKN100
     FM190500 00000KT 3SM BR BKN200
     FM191000 00000KT 1SM BR BKN110
     FM191400 VRB03KT P6SM SCT100=

USA.gov is the U.S. government's official web portal to all federal, state and local government web resources and services.